KFLD Airport (Fond Du Lac County) Information

FAA: FLD - ICAO: KFLD

KFLD Airport Location

State Wisconsin
County Fond Du Lac
City Fond Du Lac
KFLD Airport is 1 miles west of Fond Du Lac, WI.
Latitude 43-46-16.2000N
Longitude 088-29-18.3000W
Elevation 808ft

KFLD Airport METARs

METAR KFLD 200353Z AUTO 22008KT 10SM CLR 17/07 A3002 RMK AO2 SLP165 T01720072
Altimeter 30.02"
Temperature 17.2°C (63.0°F)
Wind 220° at 8KT
Clouds Skies are clear.
Visibility 10.0mi
Time observed: 2021-10-20T03:53:00Z

KFLD Airport Details

Status Operational
Activation October 1958
Ownership Public
Usage Public
Chart CHICAGO
ATC on-site No
Beacon schedule sunset-sunrise
Beacon color clear green

KFLD Airport Contacts

Owner FOND DU LAC COUNTY
Owner address 160 S MACY, FOND DU LAC, WI 54935
Owner phone 920-922-4162
Manager GORDON HOWIE
Manager address 1221 WHIPPLE ST, EAU CLAIRE, WI 54702-4105
Manager phone 715-838-1999

KFLD Airport (Fond Du Lac County) Radio Frequencies

KFLD (Airport) Radio Frequencies

UNICOM 123.05
Common traffic advisory frequency (CTAF) 123.05